• Join FlightAware (Why Join?)
  • Login
  • US Flag 
11:47AM EDT


 

Airport Tracker/Info


-or-


 

Live Flight TrackerFlight Track Log ✈ EJA922 ✈ 19-Jan-2014 ✈ KPHX - SKCG / CTG

Flight Track Log - Related Links

Times and Time Zones

All times are in EST time to prevent confusion due to time zone crossing. See the EJA922 flight status page for this flight to view local times or setup timezone preferences in your user account.

Time Position Orientation Groundspeed Altitude Reporting Facility
EST Latitude Longitude Course Direction KTS MPH feet Rate Location/Type
02:58PM 33.4333 -111.9833 90° East 200 230 2,000  Level Phoenix TRACON
02:58PM 33.4333 -111.9167 90° East 237 273 5,200 3,420 Climbing Phoenix TRACON
02:59PM 33.4333 -111.8333 90° East 267 307 8,600 3,300 Climbing Phoenix TRACON
03:00PM 33.3500 -111.8167 171° South 284 327 11,800 2,400 Climbing Phoenix TRACON
03:01PM 33.2500 -111.8500 196° South 359 413 13,400 1,680 Climbing Phoenix TRACON
03:03PM 33.1328 -111.8656 186° South 373 429 15,900 1,860 Climbing Albuquerque Center
03:04PM 33.0053 -111.8878 188° South 386 444 17,900 1,860 Climbing Albuquerque Center
03:05PM 32.8969 -111.9042 187° South 393 452 19,800 1,680 Climbing Albuquerque Center
03:06PM 32.7939 -111.8522 157° South 405 466 21,400 1,380 Climbing Albuquerque Center
03:07PM 32.6892 -111.7861 152° Southeast 422 486 22,700 1,200 Climbing Albuquerque Center
03:08PM 32.5822 -111.7208 153° Southeast 430 495 23,900 1,260 Climbing Albuquerque Center
03:09PM 32.4717 -111.6592 155° Southeast 437 503 25,400 1,260 Climbing Albuquerque Center
03:10PM 32.3497 -111.6208 165° South 438 504 26,600 1,260 Climbing Albuquerque Center
03:11PM 32.2114 -111.5706 163° South 445 512 28,000 1,140 Climbing Albuquerque Center
03:12PM 32.0897 -111.5281 164° South 452 520 29,000 900 Climbing Albuquerque Center
03:13PM 31.9636 -111.4861 164° South 465 535 29,900 840 Climbing Albuquerque Center
03:14PM 31.8361 -111.4411 163° South 475 547 30,800 1,200 Climbing Albuquerque Center
03:15PM 31.7069 -111.3944 163° South 482 555 32,400 1,800 Climbing Albuquerque Center
03:16PM 31.5742 -111.3511 164° South 473 544 34,500 1,800 Climbing Albuquerque Center
03:17PM 31.4517 -111.3078 163° South 464 534 36,100 1,500 Climbing Albuquerque Center
03:19PM 31.2842 -111.2470 165° South  Level FlightAware Approximate
03:26PM 30.3985 -110.8908 114° Southeast  Level FlightAware Approximate
03:27PM 30.3430 -110.7440 114° Southeast  Level FlightAware Approximate
03:28PM 30.2874 -110.5975 114° Southeast  Level FlightAware Approximate
03:29PM 30.2316 -110.4510 114° Southeast  Level FlightAware Approximate
03:30PM 30.1757 -110.3048 114° Southeast  Level FlightAware Approximate
03:31PM 30.1196 -110.1587 114° Southeast  Level FlightAware Approximate
03:32PM 30.0633 -110.0128 114° Southeast  Level FlightAware Approximate
03:33PM 30.0069 -109.8670 114° Southeast  Level FlightAware Approximate
03:34PM 29.9503 -109.7215 114° Southeast  Level FlightAware Approximate
03:35PM 29.8935 -109.5760 114° Southeast  Level FlightAware Approximate
03:36PM 29.8366 -109.4308 114° Southeast  Level FlightAware Approximate
03:37PM 29.7796 -109.2857 114° Southeast  Level FlightAware Approximate
03:38PM 29.7223 -109.1407 114° Southeast  Level FlightAware Approximate
03:39PM 29.6650 -108.9960 114° Southeast  Level FlightAware Approximate
03:40PM 29.6074 -108.8514 115° Southeast  Level FlightAware Approximate
03:41PM 29.5497 -108.7070 115° Southeast  Level FlightAware Approximate
03:42PM 29.4919 -108.5627 115° Southeast  Level FlightAware Approximate
03:43PM 29.4343 -108.4184 114° Southeast  Level FlightAware Approximate
03:44PM 29.3768 -108.2741 115° Southeast  Level FlightAware Approximate
03:45PM 29.3191 -108.1300 115° Southeast  Level FlightAware Approximate
03:46PM 29.2614 -107.9860 115° Southeast  Level FlightAware Approximate
03:47PM 29.2034 -107.8422 115° Southeast  Level FlightAware Approximate
03:48PM 29.1453 -107.6986 115° Southeast  Level FlightAware Approximate
03:49PM 29.0870 -107.5551 115° Southeast  Level FlightAware Approximate
03:50PM 29.0286 -107.4118 115° Southeast  Level FlightAware Approximate
03:51PM 28.9701 -107.2686 115° Southeast  Level FlightAware Approximate
03:52PM 28.9114 -107.1256 115° Southeast  Level FlightAware Approximate
03:53PM 28.8525 -106.9828 115° Southeast  Level FlightAware Approximate
03:54PM 28.7935 -106.8401 115° Southeast  Level FlightAware Approximate
03:55PM 28.7343 -106.6976 115° Southeast  Level FlightAware Approximate
03:56PM 28.6750 -106.5553 115° Southeast  Level FlightAware Approximate
03:57PM 28.6156 -106.4131 115° Southeast  Level FlightAware Approximate
03:58PM 28.5560 -106.2710 116° Southeast  Level FlightAware Approximate
03:59PM 28.4962 -106.1292 116° Southeast  Level FlightAware Approximate
04:00PM 28.4363 -105.9875 116° Southeast  Level FlightAware Approximate
04:01PM 28.3763 -105.8459 116° Southeast  Level FlightAware Approximate
04:02PM 28.3161 -105.7046 116° Southeast  Level FlightAware Approximate
04:03PM 28.2557 -105.5633 116° Southeast  Level FlightAware Approximate
04:04PM 28.1966 -105.4217 109° East  Level FlightAware Approximate
04:05PM 28.1526 -105.2730 109° East  Level FlightAware Approximate
04:06PM 28.1084 -105.1245 109° East  Level FlightAware Approximate
04:07PM 28.0641 -104.9761 109° East  Level FlightAware Approximate
04:08PM 28.0197 -104.8278 109° East  Level FlightAware Approximate
04:09PM 27.9750 -104.6796 109° East  Level FlightAware Approximate
04:10PM 27.9303 -104.5316 109° East  Level FlightAware Approximate
04:11PM 27.8853 -104.3837 109° East  Level FlightAware Approximate
04:12PM 27.8402 -104.2359 109° East  Level FlightAware Approximate
04:13PM 27.7950 -104.0882 109° East  Level FlightAware Approximate
04:14PM 27.7496 -103.9407 109° East  Level FlightAware Approximate
04:15PM 27.7040 -103.7932 109° East  Level FlightAware Approximate
04:16PM 27.6583 -103.6459 109° East  Level FlightAware Approximate
04:17PM 27.6124 -103.4987 109° East  Level FlightAware Approximate
04:18PM 27.5664 -103.3517 109° East  Level FlightAware Approximate
04:19PM 27.5202 -103.2048 109° East  Level FlightAware Approximate
04:20PM 27.4738 -103.0580 110° East  Level FlightAware Approximate
04:21PM 27.4273 -102.9113 110° East  Level FlightAware Approximate
04:22PM 27.3807 -102.7647 110° East  Level FlightAware Approximate
04:23PM 27.3339 -102.6183 110° East  Level FlightAware Approximate
04:24PM 27.2869 -102.4720 110° East  Level FlightAware Approximate
04:25PM 27.2398 -102.3258 110° East  Level FlightAware Approximate
04:26PM 27.1925 -102.1797 110° East  Level FlightAware Approximate
04:27PM 27.1443 -102.0341 111° Southeast  Level FlightAware Approximate
04:28PM 27.0949 -101.8891 111° Southeast  Level FlightAware Approximate
04:29PM 27.0454 -101.7441 111° Southeast  Level FlightAware Approximate
04:30PM 26.9957 -101.5993 111° Southeast  Level FlightAware Approximate
04:31PM 26.9461 -101.4546 110° East  Level FlightAware Approximate
04:32PM 26.8983 -101.3091 110° East  Level FlightAware Approximate
04:33PM 26.8503 -101.1638 110° East  Level FlightAware Approximate
04:34PM 26.8022 -101.0186 110° East  Level FlightAware Approximate
04:35PM 26.7540 -100.8735 110° East  Level FlightAware Approximate
04:36PM 26.7056 -100.7285 110° East  Level FlightAware Approximate
04:37PM 26.6571 -100.5836 111° Southeast  Level FlightAware Approximate
04:38PM 26.6084 -100.4389 111° Southeast  Level FlightAware Approximate
04:39PM 26.5596 -100.2943 111° Southeast  Level FlightAware Approximate
04:40PM 26.5160 -100.1479 106° East  Level FlightAware Approximate
04:41PM 26.4785 -99.9992 106° East  Level FlightAware Approximate
04:42PM 26.4408 -99.8507 106° East  Level FlightAware Approximate
04:43PM 26.4029 -99.7022 106° East  Level FlightAware Approximate
04:44PM 26.3649 -99.5539 106° East  Level FlightAware Approximate
04:45PM 26.3267 -99.4056 106° East  Level FlightAware Approximate
04:46PM 26.2773 -99.2620 108° East  Level FlightAware Approximate
04:47PM 26.2353 -99.1152 108° East  Level FlightAware Approximate
04:48PM 26.1931 -98.9684 108° East  Level FlightAware Approximate
04:49PM 26.1509 -98.8218 108° East  Level FlightAware Approximate
04:50PM 26.1084 -98.6752 108° East  Level FlightAware Approximate
04:51PM 26.0659 -98.5288 108° East  Level FlightAware Approximate
04:52PM 26.0231 -98.3825 108° East  Level FlightAware Approximate
04:53PM 25.9803 -98.2363 108° East  Level FlightAware Approximate
04:54PM 25.9373 -98.0902 108° East  Level FlightAware Approximate
04:55PM 25.8941 -97.9442 108° East  Level FlightAware Approximate
04:56PM 25.8508 -97.7983 108° East  Level FlightAware Approximate
04:57PM 25.8073 -97.6525 108° East  Level FlightAware Approximate
04:58PM 25.7619 -97.5078 121° Southeast  Level FlightAware Approximate
04:59PM 25.6905 -97.3764 121° Southeast  Level FlightAware Approximate
05:00PM 25.6190 -97.2452 121° Southeast  Level FlightAware Approximate
05:01PM 25.5474 -97.1141 121° Southeast  Level FlightAware Approximate
05:02PM 25.4757 -96.9832 121° Southeast  Level FlightAware Approximate
05:03PM 25.4042 -96.8521 121° Southeast  Level FlightAware Approximate
05:04PM 25.3343 -96.7202 120° Southeast  Level FlightAware Approximate
05:05PM 25.2661 -96.5873 120° Southeast  Level FlightAware Approximate
05:06PM 25.1977 -96.4545 120° Southeast  Level FlightAware Approximate
05:07PM 25.1292 -96.3218 120° Southeast  Level FlightAware Approximate
05:08PM 25.0595 -96.1900 121° Southeast  Level FlightAware Approximate
05:09PM 24.9876 -96.0597 121° Southeast  Level FlightAware Approximate
05:10PM 24.9156 -95.9296 121° Southeast  Level FlightAware Approximate
05:11PM 24.8435 -95.7996 121° Southeast  Level FlightAware Approximate
05:12PM 24.7713 -95.6697 121° Southeast  Level FlightAware Approximate
05:13PM 24.6990 -95.5400 122° Southeast  Level FlightAware Approximate
05:14PM 24.6266 -95.4105 122° Southeast  Level FlightAware Approximate
05:15PM 24.5540 -95.2811 122° Southeast  Level FlightAware Approximate
05:16PM 24.4814 -95.1519 122° Southeast  Level FlightAware Approximate
05:17PM 24.4086 -95.0228 122° Southeast  Level FlightAware Approximate
05:18PM 24.3358 -94.8938 122° Southeast  Level FlightAware Approximate
05:19PM 24.2628 -94.7650 122° Southeast  Level FlightAware Approximate
05:20PM 24.1897 -94.6364 122° Southeast  Level FlightAware Approximate
05:21PM 24.1242 -94.5034 114° Southeast  Level FlightAware Approximate
05:22PM 24.0677 -94.3652 114° Southeast  Level FlightAware Approximate
05:23PM 24.0111 -94.2271 114° Southeast  Level FlightAware Approximate
05:24PM 23.9590 -94.0870 112° Southeast  Level FlightAware Approximate
05:25PM 23.9079 -93.9464 112° Southeast  Level FlightAware Approximate
05:26PM 23.8565 -93.8062 112° Southeast  Level FlightAware Approximate
05:27PM 23.8039 -93.6664 112° Southeast  Level FlightAware Approximate
05:28PM 23.7512 -93.5268 112° Southeast  Level FlightAware Approximate
05:29PM 23.6983 -93.3873 112° Southeast  Level FlightAware Approximate
05:30PM 23.6454 -93.2479 113° Southeast  Level FlightAware Approximate
05:31PM 23.5923 -93.1086 113° Southeast  Level FlightAware Approximate
05:32PM 23.5391 -92.9694 113° Southeast  Level FlightAware Approximate
05:33PM 23.4857 -92.8303 113° Southeast  Level FlightAware Approximate
05:34PM 23.4323 -92.6914 113° Southeast  Level FlightAware Approximate
05:35PM 23.3787 -92.5526 113° Southeast  Level FlightAware Approximate
05:36PM 23.3250 -92.4138 113° Southeast  Level FlightAware Approximate
05:37PM 23.2711 -92.2752 113° Southeast  Level FlightAware Approximate
05:38PM 23.2172 -92.1367 113° Southeast  Level FlightAware Approximate
05:39PM 23.1631 -91.9983 113° Southeast  Level FlightAware Approximate
05:40PM 23.1089 -91.8600 113° Southeast  Level FlightAware Approximate
05:41PM 23.0546 -91.7219 113° Southeast  Level FlightAware Approximate
05:42PM 23.0002 -91.5838 113° Southeast  Level FlightAware Approximate
05:43PM 22.9452 -91.4461 113° Southeast  Level FlightAware Approximate
05:44PM 22.8900 -91.3085 114° Southeast  Level FlightAware Approximate
05:45PM 22.8347 -91.1710 114° Southeast  Level FlightAware Approximate
05:46PM 22.7792 -91.0337 114° Southeast  Level FlightAware Approximate
05:47PM 22.7236 -90.8964 114° Southeast  Level FlightAware Approximate
05:48PM 22.6680 -90.7593 114° Southeast  Level FlightAware Approximate
05:49PM 22.6121 -90.6223 114° Southeast  Level FlightAware Approximate
05:50PM 22.5554 -90.4857 114° Southeast  Level FlightAware Approximate
05:51PM 22.4987 -90.3493 114° Southeast  Level FlightAware Approximate
05:52PM 22.4418 -90.2130 114° Southeast  Level FlightAware Approximate
05:53PM 22.3848 -90.0768 114° Southeast  Level FlightAware Approximate
05:54PM 22.3277 -89.9407 114° Southeast  Level FlightAware Approximate
05:55PM 22.2705 -89.8047 114° Southeast  Level FlightAware Approximate
05:56PM 22.2132 -89.6688 114° Southeast  Level FlightAware Approximate
05:57PM 22.1558 -89.5330 114° Southeast  Level FlightAware Approximate
05:58PM 22.0983 -89.3972 115° Southeast  Level FlightAware Approximate
05:59PM 22.0425 -89.2609 110° East  Level FlightAware Approximate
06:00PM 21.9912 -89.1226 114° Southeast  Level FlightAware Approximate
06:01PM 21.9341 -88.9868 114° Southeast  Level FlightAware Approximate
06:02PM 21.8769 -88.8512 114° Southeast  Level FlightAware Approximate
06:03PM 21.8195 -88.7157 114° Southeast  Level FlightAware Approximate
06:04PM 21.7621 -88.5803 115° Southeast  Level FlightAware Approximate
06:05PM 21.7046 -88.4450 115° Southeast  Level FlightAware Approximate
06:06PM 21.6469 -88.3098 115° Southeast  Level FlightAware Approximate
06:07PM 21.5891 -88.1748 115° Southeast  Level FlightAware Approximate
06:08PM 21.5309 -88.0400 115° Southeast  Level FlightAware Approximate
06:09PM 21.4725 -87.9053 115° Southeast  Level FlightAware Approximate
06:10PM 21.4141 -87.7707 115° Southeast  Level FlightAware Approximate
06:11PM 21.3559 -87.6360 115° Southeast  Level FlightAware Approximate
06:12PM 21.2981 -87.5013 115° Southeast  Level FlightAware Approximate
06:13PM 21.2402 -87.3666 115° Southeast  Level FlightAware Approximate
06:14PM 21.1822 -87.2320 115° Southeast  Level FlightAware Approximate
06:15PM 21.1241 -87.0975 115° Southeast  Level FlightAware Approximate
06:16PM 21.0658 -86.9632 115° Southeast  Level FlightAware Approximate
06:17PM 21.0009 -86.8341 137° Southeast  Level FlightAware Approximate
06:18PM 20.9002 -86.7326 137° Southeast  Level FlightAware Approximate
06:19PM 20.7995 -86.6313 137° Southeast  Level FlightAware Approximate
06:20PM 20.6988 -86.5301 137° Southeast  Level FlightAware Approximate
06:21PM 20.5979 -86.4290 137° Southeast  Level FlightAware Approximate
06:22PM 20.4971 -86.3281 137° Southeast  Level FlightAware Approximate
06:23PM 20.3961 -86.2273 137° Southeast  Level FlightAware Approximate
06:24PM 20.2951 -86.1267 137° Southeast  Level FlightAware Approximate
06:25PM 20.1941 -86.0262 137° Southeast  Level FlightAware Approximate
06:26PM 20.0930 -85.9258 137° Southeast  Level FlightAware Approximate
06:27PM 19.9918 -85.8255 137° Southeast  Level FlightAware Approximate
06:28PM 19.8907 -85.7253 137° Southeast  Level FlightAware Approximate
06:29PM 19.7895 -85.6252 137° Southeast  Level FlightAware Approximate
06:30PM 19.6882 -85.5252 137° Southeast  Level FlightAware Approximate
06:31PM 19.5870 -85.4253 137° Southeast  Level FlightAware Approximate
06:32PM 19.4856 -85.3256 137° Southeast  Level FlightAware Approximate
06:33PM 19.3842 -85.2260 137° Southeast  Level FlightAware Approximate
06:34PM 19.2827 -85.1265 137° Southeast  Level FlightAware Approximate
06:35PM 19.1812 -85.0272 137° Southeast  Level FlightAware Approximate
06:36PM 19.0796 -84.9279 137° Southeast  Level FlightAware Approximate
06:37PM 18.9780 -84.8288 137° Southeast  Level FlightAware Approximate
06:38PM 18.8763 -84.7299 137° Southeast  Level FlightAware Approximate
06:39PM 18.7746 -84.6310 137° Southeast  Level FlightAware Approximate
06:40PM 18.6728 -84.5322 137° Southeast  Level FlightAware Approximate
06:41PM 18.5710 -84.4336 137° Southeast  Level FlightAware Approximate
06:42PM 18.4691 -84.3351 137° Southeast  Level FlightAware Approximate
06:43PM 18.3674 -84.2364 137° Southeast  Level FlightAware Approximate
06:44PM 18.2657 -84.1378 137° Southeast  Level FlightAware Approximate
06:45PM 18.1640 -84.0393 137° Southeast  Level FlightAware Approximate
06:46PM 18.0622 -83.9409 137° Southeast  Level FlightAware Approximate
06:47PM 17.9604 -83.8426 137° Southeast  Level FlightAware Approximate
06:48PM 17.8585 -83.7444 137° Southeast  Level FlightAware Approximate
06:49PM 17.7566 -83.6463 137° Southeast  Level FlightAware Approximate
06:50PM 17.6546 -83.5484 138° Southeast  Level FlightAware Approximate
06:51PM 17.5526 -83.4505 138° Southeast  Level FlightAware Approximate
06:52PM 17.4505 -83.3528 138° Southeast  Level FlightAware Approximate
06:53PM 17.3484 -83.2552 138° Southeast  Level FlightAware Approximate
06:54PM 17.2462 -83.1577 138° Southeast  Level FlightAware Approximate
06:55PM 17.1440 -83.0603 138° Southeast  Level FlightAware Approximate
06:56PM 17.0417 -82.9630 138° Southeast  Level FlightAware Approximate
06:57PM 16.9394 -82.8658 138° Southeast  Level FlightAware Approximate
06:58PM 16.8371 -82.7687 138° Southeast  Level FlightAware Approximate
06:59PM 16.7347 -82.6717 138° Southeast  Level FlightAware Approximate
07:00PM 16.6322 -82.5749 138° Southeast  Level FlightAware Approximate
07:01PM 16.5298 -82.4781 138° Southeast  Level FlightAware Approximate
07:02PM 16.4272 -82.3814 138° Southeast  Level FlightAware Approximate
07:03PM 16.3246 -82.2848 138° Southeast  Level FlightAware Approximate
07:04PM 16.2220 -82.1884 138° Southeast  Level FlightAware Approximate
07:05PM 16.1194 -82.0920 138° Southeast  Level FlightAware Approximate
07:06PM 16.0167 -81.9957 138° Southeast  Level FlightAware Approximate
07:07PM 15.9139 -81.8996 138° Southeast  Level FlightAware Approximate
07:08PM 15.8111 -81.8035 138° Southeast  Level FlightAware Approximate
07:09PM 15.7083 -81.7075 138° Southeast  Level FlightAware Approximate
07:10PM 15.6054 -81.6116 138° Southeast  Level FlightAware Approximate
07:11PM 15.5025 -81.5158 138° Southeast  Level FlightAware Approximate
07:12PM 15.3996 -81.4202 138° Southeast  Level FlightAware Approximate
07:13PM 15.2966 -81.3246 138° Southeast  Level FlightAware Approximate
07:14PM 15.1936 -81.2291 138° Southeast  Level FlightAware Approximate
07:15PM 15.0905 -81.1337 138° Southeast  Level FlightAware Approximate
07:16PM 14.9874 -81.0383 138° Southeast  Level FlightAware Approximate
07:17PM 14.8842 -80.9431 138° Southeast  Level FlightAware Approximate
07:18PM 14.7810 -80.8480 138° Southeast  Level FlightAware Approximate
07:19PM 14.6778 -80.7529 138° Southeast  Level FlightAware Approximate
07:20PM 14.5745 -80.6580 138° Southeast  Level FlightAware Approximate
07:21PM 14.4712 -80.5631 138° Southeast  Level FlightAware Approximate
07:22PM 14.3679 -80.4683 138° Southeast  Level FlightAware Approximate
07:23PM 14.2645 -80.3736 138° Southeast  Level FlightAware Approximate
07:24PM 14.1611 -80.2790 138° Southeast  Level FlightAware Approximate
07:25PM 14.0577 -80.1845 138° Southeast  Level FlightAware Approximate
07:26PM 13.9542 -80.0900 138° Southeast  Level FlightAware Approximate
07:27PM 13.8507 -79.9957 138° Southeast  Level FlightAware Approximate
07:28PM 13.7471 -79.9014 139° Southeast  Level FlightAware Approximate
07:29PM 13.6435 -79.8072 139° Southeast  Level FlightAware Approximate
07:30PM 13.5399 -79.7131 139° Southeast  Level FlightAware Approximate
07:31PM 13.4362 -79.6191 139° Southeast  Level FlightAware Approximate
07:32PM 13.3325 -79.5252 139° Southeast  Level FlightAware Approximate
07:33PM 13.2288 -79.4313 139° Southeast  Level FlightAware Approximate
07:34PM 13.1250 -79.3375 139° Southeast  Level FlightAware Approximate
07:35PM 13.0212 -79.2438 139° Southeast  Level FlightAware Approximate
07:36PM 12.9173 -79.1502 139° Southeast  Level FlightAware Approximate
07:37PM 12.8135 -79.0567 139° Southeast  Level FlightAware Approximate
07:38PM 12.7096 -78.9632 139° Southeast  Level FlightAware Approximate
07:39PM 12.6056 -78.8698 139° Southeast  Level FlightAware Approximate
07:40PM 12.5017 -78.7765 139° Southeast  Level FlightAware Approximate
07:41PM 12.3977 -78.6833 139° Southeast  Level FlightAware Approximate
07:42PM 12.2936 -78.5901 139° Southeast  Level FlightAware Approximate
07:43PM 12.1896 -78.4970 139° Southeast  Level FlightAware Approximate
07:44PM 12.0855 -78.4040 139° Southeast  Level FlightAware Approximate
07:45PM 11.9813 -78.3110 139° Southeast  Level FlightAware Approximate
07:46PM 11.8772 -78.2181 139° Southeast  Level FlightAware Approximate
07:47PM 11.7730 -78.1254 139° Southeast  Level FlightAware Approximate
07:48PM 11.6688 -78.0326 139° Southeast  Level FlightAware Approximate
07:49PM 11.5645 -77.9399 139° Southeast  Level FlightAware Approximate
07:50PM 11.4602 -77.8474 139° Southeast  Level FlightAware Approximate
07:51PM 11.3559 -77.7548 139° Southeast  Level FlightAware Approximate
07:52PM 11.2516 -77.6624 139° Southeast  Level FlightAware Approximate
07:53PM 11.1450 -77.5727 142° Southeast  Level FlightAware Approximate
07:54PM 11.0363 -77.4857 142° Southeast  Level FlightAware Approximate
07:55PM 10.9409 -77.3892 109° East  Level FlightAware Approximate
07:56PM 10.8929 -77.2572 112° Southeast  Level FlightAware Approximate
07:57PM 10.8440 -77.1258 104° East  Level FlightAware Approximate
07:58PM 10.7902 -76.9970 117° Southeast  Level FlightAware Approximate
07:59PM 10.7382 -76.8668 114° Southeast  Level FlightAware Approximate
08:00PM 10.6829 -76.7378 114° Southeast  Level FlightAware Approximate
08:01PM 10.6333 -76.6066 110° East  Level FlightAware Approximate
08:02PM 10.5861 -76.4744 110° East  Level FlightAware Approximate
08:03PM 10.5360 -76.3434 111° Southeast  Level FlightAware Approximate
08:04PM 10.4857 -76.2125 111° Southeast  Level FlightAware Approximate
08:05PM 10.4353 -76.0816 111° Southeast  Level FlightAware Approximate
08:06PM 10.3807 -75.9525 114° Southeast  Level FlightAware Approximate
08:07PM 10.3269 -75.8232 111° Southeast  Level FlightAware Approximate
08:08PM 10.2765 -75.6923 111° Southeast  Level FlightAware Approximate
08:09PM 10.2310 -75.5597 109° East  Level FlightAware Approximate
08:10PM 10.2701 -75.5000 North  Level FlightAware Approximate
08:11PM 10.4083 -75.5000 North  Level FlightAware Approximate
08:12PM 10.4333 -75.5000 North  Level FlightAware Approximate
08:13PM 10.4424 -75.5130 North  Level Estimated
08:14PM 10.4424 -75.5130 North  Level Estimated
08:15PM 10.4424 -75.5130 North  Level Estimated
08:16PM 10.4424 -75.5130 North  Level Estimated
08:17PM 10.4424 -75.5130 North  Level Estimated
08:18PM 10.4424 -75.5130 North  Level Estimated
08:19PM 10.4424 -75.5130 North  Level Estimated
08:20PM 10.4424 -75.5130 North  Level Estimated
08:21PM 10.4424 -75.5130 North  Level Estimated